sensor_id;sensor_type;location;lat;lon;timestamp;pressure;altitude;pressure_sealevel;temperature;humidity
50702;BME280;36670;50.094;8.496;2022-12-29T00:01:24;99582.16;;;10.84;68.92
50702;BME280;36670;50.094;8.496;2022-12-29T00:03:49;99581.63;;;10.87;68.94
50702;BME280;36670;50.094;8.496;2022-12-29T00:06:15;99580.56;;;11.03;69.17
50702;BME280;36670;50.094;8.496;2022-12-29T00:08:40;99572.84;;;11.16;68.79
50702;BME280;36670;50.094;8.496;2022-12-29T00:11:07;99585.84;;;11.25;69.13
50702;BME280;36670;50.094;8.496;2022-12-29T00:13:33;99588.31;;;11.27;69.22
50702;BME280;36670;50.094;8.496;2022-12-29T00:16:17;99580.88;;;11.33;69.31
50702;BME280;36670;50.094;8.496;2022-12-29T00:18:42;99585.03;;;11.40;69.36
50702;BME280;36670;50.094;8.496;2022-12-29T00:21:13;99590.00;;;11.43;68.95
50702;BME280;36670;50.094;8.496;2022-12-29T00:23:57;99569.81;;;11.48;69.22
50702;BME280;36670;50.094;8.496;2022-12-29T00:26:41;99596.09;;;11.61;69.45
50702;BME280;36670;50.094;8.496;2022-12-29T00:29:25;99591.66;;;11.55;68.56
50702;BME280;36670;50.094;8.496;2022-12-29T00:32:09;99594.97;;;11.67;68.50
50702;BME280;36670;50.094;8.496;2022-12-29T00:34:53;99602.19;;;11.73;68.51
50702;BME280;36670;50.094;8.496;2022-12-29T00:37:38;99604.38;;;11.76;68.82
50702;BME280;36670;50.094;8.496;2022-12-29T00:40:24;99601.31;;;11.73;68.64
50702;BME280;36670;50.094;8.496;2022-12-29T00:43:08;99610.44;;;11.84;68.68
50702;BME280;36670;50.094;8.496;2022-12-29T00:45:52;99605.75;;;11.89;68.81
50702;BME280;36670;50.094;8.496;2022-12-29T00:48:17;99600.78;;;11.91;68.10
50702;BME280;36670;50.094;8.496;2022-12-29T00:51:06;99600.50;;;11.88;69.01
50702;BME280;36670;50.094;8.496;2022-12-29T00:53:32;99600.50;;;11.88;68.90
50702;BME280;36670;50.094;8.496;2022-12-29T00:55:57;99605.19;;;11.92;68.46
50702;BME280;36670;50.094;8.496;2022-12-29T00:58:23;99603.25;;;11.93;69.07
50702;BME280;36670;50.094;8.496;2022-12-29T01:00:48;99599.66;;;11.92;68.65
50702;BME280;36670;50.094;8.496;2022-12-29T01:03:13;99600.50;;;11.88;68.88
50702;BME280;36670;50.094;8.496;2022-12-29T01:05:38;99606.31;;;11.91;69.49
50702;BME280;36670;50.094;8.496;2022-12-29T01:08:04;99596.09;;;11.97;68.50
50702;BME280;36670;50.094;8.496;2022-12-29T01:10:29;99595.78;;;11.93;69.35
50702;BME280;36670;50.094;8.496;2022-12-29T01:12:55;99598.28;;;11.95;69.42
50702;BME280;36670;50.094;8.496;2022-12-29T01:15:20;99602.97;;;11.89;69.90
50702;BME280;36670;50.094;8.496;2022-12-29T01:17:45;99598.28;;;11.95;69.13
50702;BME280;36670;50.094;8.496;2022-12-29T01:20:11;99590.56;;;11.97;68.93
50702;BME280;36670;50.094;8.496;2022-12-29T01:22:36;99588.03;;;12.01;68.93
50702;BME280;36670;50.094;8.496;2022-12-29T01:25:03;99590.53;;;12.02;68.94
50702;BME280;36670;50.094;8.496;2022-12-29T01:27:28;99579.19;;;11.93;69.83
50702;BME280;36670;50.094;8.496;2022-12-29T01:29:53;99572.81;;;12.03;69.40
50702;BME280;36670;50.094;8.496;2022-12-29T01:32:19;99570.06;;;11.93;69.41
50702;BME280;36670;50.094;8.496;2022-12-29T01:34:44;99568.41;;;11.92;69.77
50702;BME280;36670;50.094;8.496;2022-12-29T01:37:10;99563.69;;;11.92;70.43
50702;BME280;36670;50.094;8.496;2022-12-29T01:39:35;99561.78;;;11.88;70.11
50702;BME280;36670;50.094;8.496;2022-12-29T01:42:01;99562.91;;;11.97;70.43
50702;BME280;36670;50.094;8.496;2022-12-29T01:44:48;99566.75;;;11.81;70.75
50702;BME280;36670;50.094;8.496;2022-12-29T01:47:20;99560.94;;;11.82;70.78
50702;BME280;36670;50.094;8.496;2022-12-29T01:49:47;99560.38;;;11.80;70.78
50702;BME280;36670;50.094;8.496;2022-12-29T01:52:13;99559.00;;;11.88;70.46
50702;BME280;36670;50.094;8.496;2022-12-29T01:54:50;99559.00;;;11.83;70.70
50702;BME280;36670;50.094;8.496;2022-12-29T01:57:20;99554.84;;;11.90;70.61
50702;BME280;36670;50.094;8.496;2022-12-29T01:59:51;99554.03;;;11.85;70.31
50702;BME280;36670;50.094;8.496;2022-12-29T02:02:19;99549.06;;;11.97;70.05
50702;BME280;36670;50.094;8.496;2022-12-29T02:04:44;99547.09;;;11.92;70.65
50702;BME280;36670;50.094;8.496;2022-12-29T02:07:18;99546.56;;;11.85;70.76
50702;BME280;36670;50.094;8.496;2022-12-29T02:09:47;99547.41;;;11.96;69.80
50702;BME280;36670;50.094;8.496;2022-12-29T02:12:14;99542.69;;;11.86;70.34
50702;BME280;36670;50.094;8.496;2022-12-29T02:14:39;99553.75;;;11.91;70.10
50702;BME280;36670;50.094;8.496;2022-12-29T02:19:59;99546.28;;;11.92;70.39
50702;BME280;36670;50.094;8.496;2022-12-29T02:22:57;99537.97;;;11.92;70.76
50702;BME280;36670;50.094;8.496;2022-12-29T02:31:31;99532.72;;;11.85;71.23
50702;BME280;36670;50.094;8.496;2022-12-29T02:34:22;99530.25;;;11.89;71.12
50702;BME280;36670;50.094;8.496;2022-12-29T02:37:02;99515.56;;;11.88;70.35
50702;BME280;36670;50.094;8.496;2022-12-29T02:39:40;99497.63;;;11.75;70.91
50702;BME280;36670;50.094;8.496;2022-12-29T02:44:55;99497.94;;;11.58;71.62
50702;BME280;36670;50.094;8.496;2022-12-29T02:51:00;99511.50;;;11.44;72.53
50702;BME280;36670;50.094;8.496;2022-12-29T02:53:27;99504.03;;;11.55;71.64
50702;BME280;36670;50.094;8.496;2022-12-29T02:56:12;99518.41;;;11.63;71.75
50702;BME280;36670;50.094;8.496;2022-12-29T02:58:37;99511.19;;;11.67;72.48
50702;BME280;36670;50.094;8.496;2022-12-29T03:01:29;99504.81;;;11.76;71.91
50702;BME280;36670;50.094;8.496;2022-12-29T03:07:22;99497.09;;;11.68;71.96
50702;BME280;36670;50.094;8.496;2022-12-29T03:10:15;99497.63;;;11.75;71.91
50702;BME280;36670;50.094;8.496;2022-12-29T03:13:04;99495.69;;;11.76;72.52
50702;BME280;36670;50.094;8.496;2022-12-29T03:16:13;99496.25;;;11.78;72.70
50702;BME280;36670;50.094;8.496;2022-12-29T03:19:07;99486.84;;;11.74;72.07
50702;BME280;36670;50.094;8.496;2022-12-29T03:21:43;99488.81;;;11.73;72.18
50702;BME280;36670;50.094;8.496;2022-12-29T03:24:30;99477.44;;;11.75;72.49
50702;BME280;36670;50.094;8.496;2022-12-29T03:26:59;99480.78;;;11.72;73.14
50702;BME280;36670;50.094;8.496;2022-12-29T03:29:27;99472.50;;;11.72;72.17
50702;BME280;36670;50.094;8.496;2022-12-29T03:31:55;99471.34;;;11.78;72.00
50702;BME280;36670;50.094;8.496;2022-12-29T03:34:21;99473.81;;;11.85;72.25
50702;BME280;36670;50.094;8.496;2022-12-29T03:36:53;99469.97;;;11.75;72.72
50702;BME280;36670;50.094;8.496;2022-12-29T03:39:22;99483.00;;;11.70;72.68
50702;BME280;36670;50.094;8.496;2022-12-29T03:41:51;99468.06;;;11.60;72.75
50702;BME280;36670;50.094;8.496;2022-12-29T03:44:17;99469.72;;;11.67;73.05
50702;BME280;36670;50.094;8.496;2022-12-29T03:46:42;99465.00;;;11.72;72.38
50702;BME280;36670;50.094;8.496;2022-12-29T03:49:07;99459.47;;;11.77;72.54
50702;BME280;36670;50.094;8.496;2022-12-29T03:51:33;99463.06;;;11.73;72.22
50702;BME280;36670;50.094;8.496;2022-12-29T03:53:58;99463.09;;;11.68;72.72
50702;BME280;36670;50.094;8.496;2022-12-29T03:56:23;99461.69;;;11.75;72.20
50702;BME280;36670;50.094;8.496;2022-12-29T03:58:48;99449.50;;;11.82;72.30
50702;BME280;36670;50.094;8.496;2022-12-29T04:01:14;99443.41;;;11.85;71.82
50702;BME280;36670;50.094;8.496;2022-12-29T04:03:39;99444.78;;;11.87;71.24
50702;BME280;36670;50.094;8.496;2022-12-29T04:06:04;99441.97;;;11.92;70.87
50702;BME280;36670;50.094;8.496;2022-12-29T04:08:30;99439.22;;;11.92;71.35
50702;BME280;36670;50.094;8.496;2022-12-29T04:10:55;99445.88;;;11.91;71.09
50702;BME280;36670;50.094;8.496;2022-12-29T04:13:20;99445.03;;;11.91;70.60
50702;BME280;36670;50.094;8.496;2022-12-29T04:15:46;99445.56;;;11.98;70.91
50702;BME280;36670;50.094;8.496;2022-12-29T04:18:12;99448.59;;;12.07;70.42
50702;BME280;36670;50.094;8.496;2022-12-29T04:20:37;99453.00;;;12.13;70.04
50702;BME280;36670;50.094;8.496;2022-12-29T04:23:21;99464.66;;;12.05;70.08
50702;BME280;36670;50.094;8.496;2022-12-29T04:25:46;99453.56;;;12.15;70.21
50702;BME280;36670;50.094;8.496;2022-12-29T04:28:15;99447.16;;;12.15;69.63
50702;BME280;36670;50.094;8.496;2022-12-29T04:30:42;99444.13;;;12.16;69.10
50702;BME280;36670;50.094;8.496;2022-12-29T04:33:07;99452.13;;;12.18;69.45
50702;BME280;36670;50.094;8.496;2022-12-29T04:35:33;99451.53;;;12.26;68.55
50702;BME280;36670;50.094;8.496;2022-12-29T04:37:58;99451.81;;;12.29;68.70
50702;BME280;36670;50.094;8.496;2022-12-29T04:40:23;99460.13;;;12.24;68.75
50702;BME280;36670;50.094;8.496;2022-12-29T04:42:49;99440.47;;;12.26;68.63
50702;BME280;36670;50.094;8.496;2022-12-29T04:45:14;99445.72;;;12.27;67.52
50702;BME280;36670;50.094;8.496;2022-12-29T04:47:40;99435.78;;;12.26;67.34
50702;BME280;36670;50.094;8.496;2022-12-29T04:50:05;99429.16;;;12.22;67.72
50702;BME280;36670;50.094;8.496;2022-12-29T04:52:31;99421.06;;;12.36;66.89
50702;BME280;36670;50.094;8.496;2022-12-29T04:54:56;99450.13;;;12.34;66.73
50702;BME280;36670;50.094;8.496;2022-12-29T04:57:21;99435.41;;;12.43;67.33
50702;BME280;36670;50.094;8.496;2022-12-29T04:59:46;99441.47;;;12.45;67.21
50702;BME280;36670;50.094;8.496;2022-12-29T05:02:12;99452.19;;;12.62;66.35
50702;BME280;36670;50.094;8.496;2022-12-29T05:04:37;99450.81;;;12.60;66.12
50702;BME280;36670;50.094;8.496;2022-12-29T05:07:02;99455.06;;;12.42;66.96
50702;BME280;36670;50.094;8.496;2022-12-29T05:09:27;99462.28;;;12.38;67.55
50702;BME280;36670;50.094;8.496;2022-12-29T05:11:55;99452.31;;;12.37;67.58
50702;BME280;36670;50.094;8.496;2022-12-29T05:14:20;99463.69;;;12.30;67.62
50702;BME280;36670;50.094;8.496;2022-12-29T05:16:45;99463.97;;;12.34;68.78
50702;BME280;36670;50.094;8.496;2022-12-29T05:19:11;99472.78;;;12.36;68.72
50702;BME280;36670;50.094;8.496;2022-12-29T05:21:36;99474.53;;;12.26;68.59
50702;BME280;36670;50.094;8.496;2022-12-29T05:24:01;99479.22;;;12.26;68.91
50702;BME280;36670;50.094;8.496;2022-12-29T05:26:27;99467.94;;;12.12;70.16
50702;BME280;36670;50.094;8.496;2022-12-29T05:28:52;99465.22;;;12.02;70.79
50702;BME280;36670;50.094;8.496;2022-12-29T05:31:17;99458.88;;;11.96;70.89
50702;BME280;36670;50.094;8.496;2022-12-29T05:33:43;99454.72;;;11.99;70.98
50702;BME280;36670;50.094;8.496;2022-12-29T05:36:08;99450.00;;;12.04;70.81
50702;BME280;36670;50.094;8.496;2022-12-29T05:38:34;99448.03;;;12.05;70.45
50702;BME280;36670;50.094;8.496;2022-12-29T05:41:00;99446.88;;;12.16;70.45
50702;BME280;36670;50.094;8.496;2022-12-29T05:43:26;99444.44;;;12.09;70.31
50702;BME280;36670;50.094;8.496;2022-12-29T05:45:52;99443.88;;;12.12;69.92
50702;BME280;36670;50.094;8.496;2022-12-29T05:48:17;99449.16;;;12.04;69.98
50702;BME280;36670;50.094;8.496;2022-12-29T05:50:42;99445.34;;;11.94;69.85
50702;BME280;36670;50.094;8.496;2022-12-29T05:53:08;99448.03;;;12.05;69.62
50702;BME280;36670;50.094;8.496;2022-12-29T05:55:34;99446.38;;;12.04;69.80
50702;BME280;36670;50.094;8.496;2022-12-29T05:57:59;99436.09;;;12.15;69.60
50702;BME280;36670;50.094;8.496;2022-12-29T06:00:24;99433.03;;;12.21;69.70
50702;BME280;36670;50.094;8.496;2022-12-29T06:02:50;99428.59;;;12.20;69.31
50702;BME280;36670;50.094;8.496;2022-12-29T06:05:15;99441.63;;;12.20;68.81
50702;BME280;36670;50.094;8.496;2022-12-29T06:07:40;99442.13;;;12.27;68.36
50702;BME280;36670;50.094;8.496;2022-12-29T06:10:06;99446.53;;;12.33;68.49
50702;BME280;36670;50.094;8.496;2022-12-29T06:12:32;99445.13;;;12.36;67.64
50702;BME280;36670;50.094;8.496;2022-12-29T06:14:57;99445.38;;;12.39;67.16
50702;BME280;36670;50.094;8.496;2022-12-29T06:17:22;99438.94;;;12.54;67.60
50702;BME280;36670;50.094;8.496;2022-12-29T06:19:47;99441.94;;;12.58;67.48
50702;BME280;36670;50.094;8.496;2022-12-29T06:22:13;99448.34;;;12.53;66.19
50702;BME280;36670;50.094;8.496;2022-12-29T06:24:38;99441.13;;;12.57;66.83
50702;BME280;36670;50.094;8.496;2022-12-29T06:27:04;99444.19;;;12.56;66.69
50702;BME280;36670;50.094;8.496;2022-12-29T06:29:29;99448.63;;;12.57;66.53
50702;BME280;36670;50.094;8.496;2022-12-29T06:31:54;99453.00;;;12.58;66.36
50702;BME280;36670;50.094;8.496;2022-12-29T06:34:23;99452.19;;;12.62;66.58
50702;BME280;36670;50.094;8.496;2022-12-29T06:36:48;99445.69;;;12.77;66.64
50702;BME280;36670;50.094;8.496;2022-12-29T06:39:14;99447.03;;;12.80;66.56
50702;BME280;36670;50.094;8.496;2022-12-29T06:41:39;99436.22;;;12.84;65.48
50702;BME280;36670;50.094;8.496;2022-12-29T06:44:04;99437.84;;;12.90;65.37
50702;BME280;36670;50.094;8.496;2022-12-29T06:46:29;99441.34;;;13.01;64.98
50702;BME280;36670;50.094;8.496;2022-12-29T06:48:55;99453.88;;;12.93;66.05
50702;BME280;36670;50.094;8.496;2022-12-29T06:51:20;99450.75;;;13.05;65.16
50702;BME280;36670;50.094;8.496;2022-12-29T06:53:45;99454.16;;;12.91;66.44
50702;BME280;36670;50.094;8.496;2022-12-29T06:56:10;99459.75;;;12.86;66.31
50702;BME280;36670;50.094;8.496;2022-12-29T06:58:36;99452.66;;;12.75;66.50
50702;BME280;36670;50.094;8.496;2022-12-29T07:01:01;99460.09;;;12.74;67.57
50702;BME280;36670;50.094;8.496;2022-12-29T07:03:26;99452.47;;;12.61;67.68
50702;BME280;36670;50.094;8.496;2022-12-29T07:05:52;99446.66;;;12.57;67.63
50702;BME280;36670;50.094;8.496;2022-12-29T07:08:17;99446.44;;;12.49;68.02
50702;BME280;36670;50.094;8.496;2022-12-29T07:10:42;99434.25;;;12.50;68.26
50702;BME280;36670;50.094;8.496;2022-12-29T07:13:08;99435.91;;;12.51;68.18
50702;BME280;36670;50.094;8.496;2022-12-29T07:15:34;99438.38;;;12.52;68.43
50702;BME280;36670;50.094;8.496;2022-12-29T07:17:59;99434.03;;;12.41;68.71
50702;BME280;36670;50.094;8.496;2022-12-29T07:20:24;99430.97;;;12.42;68.38
50702;BME280;36670;50.094;8.496;2022-12-29T07:22:50;99438.75;;;12.40;68.40
50702;BME280;36670;50.094;8.496;2022-12-29T07:25:15;99436.78;;;12.41;67.95
50702;BME280;36670;50.094;8.496;2022-12-29T07:27:40;99436.19;;;12.49;67.84
50702;BME280;36670;50.094;8.496;2022-12-29T07:30:06;99437.06;;;12.44;67.49
50702;BME280;36670;50.094;8.496;2022-12-29T07:32:33;99430.13;;;12.47;67.87
50702;BME280;36670;50.094;8.496;2022-12-29T07:34:58;99436.75;;;12.51;67.35
50702;BME280;36670;50.094;8.496;2022-12-29T07:37:24;99435.38;;;12.49;67.44
50702;BME280;36670;50.094;8.496;2022-12-29T07:39:49;99443.63;;;12.54;67.34
50702;BME280;36670;50.094;8.496;2022-12-29T07:42:14;99443.63;;;12.54;66.85
50702;BME280;36670;50.094;8.496;2022-12-29T07:44:39;99445.00;;;12.56;66.30
50702;BME280;36670;50.094;8.496;2022-12-29T07:47:05;99456.31;;;12.65;66.18
50702;BME280;36670;50.094;8.496;2022-12-29T07:49:30;99451.78;;;12.79;65.80
50702;BME280;36670;50.094;8.496;2022-12-29T07:51:55;99452.28;;;12.81;66.05
50702;BME280;36670;50.094;8.496;2022-12-29T07:54:20;99461.69;;;12.86;65.74
50702;BME280;36670;50.094;8.496;2022-12-29T07:56:47;99454.53;;;12.79;65.47
50702;BME280;36670;50.094;8.496;2022-12-29T07:59:12;99456.19;;;12.80;65.72
50702;BME280;36670;50.094;8.496;2022-12-29T08:01:38;99464.25;;;12.77;65.53
50702;BME280;36670;50.094;8.496;2022-12-29T08:04:04;99459.53;;;12.77;66.08
50702;BME280;36670;50.094;8.496;2022-12-29T08:06:30;99462.28;;;12.77;66.06
50702;BME280;36670;50.094;8.496;2022-12-29T08:08:56;99465.63;;;12.79;65.71
50702;BME280;36670;50.094;8.496;2022-12-29T08:11:22;99461.75;;;12.80;65.83
50702;BME280;36670;50.094;8.496;2022-12-29T08:13:47;99463.94;;;12.84;65.48
50702;BME280;36670;50.094;8.496;2022-12-29T08:16:12;99464.84;;;12.74;65.67
50702;BME280;36670;50.094;8.496;2022-12-29T08:18:37;99465.97;;;12.68;66.12
50702;BME280;36670;50.094;8.496;2022-12-29T08:21:04;99475.06;;;12.73;66.10
50702;BME280;36670;50.094;8.496;2022-12-29T08:23:29;99472.28;;;12.78;65.71
50702;BME280;36670;50.094;8.496;2022-12-29T08:26:04;99489.94;;;12.88;66.22
50702;BME280;36670;50.094;8.496;2022-12-29T08:28:30;99499.16;;;12.78;66.32
50702;BME280;36670;50.094;8.496;2022-12-29T08:31:00;99492.25;;;12.70;66.40
50702;BME280;36670;50.094;8.496;2022-12-29T08:33:26;99497.81;;;12.70;66.68
50702;BME280;36670;50.094;8.496;2022-12-29T08:35:52;99502.50;;;12.75;66.57
50702;BME280;36670;50.094;8.496;2022-12-29T08:38:17;99503.63;;;12.69;66.90
50702;BME280;36670;50.094;8.496;2022-12-29T08:40:43;99499.69;;;12.80;66.77
50702;BME280;36670;50.094;8.496;2022-12-29T08:43:09;99503.25;;;12.86;67.22
50702;BME280;36670;50.094;8.496;2022-12-29T08:45:35;99502.72;;;12.84;66.72
50702;BME280;36670;50.094;8.496;2022-12-29T08:48:00;99509.84;;;12.95;67.22
50702;BME280;36670;50.094;8.496;2022-12-29T08:50:25;99515.38;;;12.95;66.96
50702;BME280;36670;50.094;8.496;2022-12-29T08:52:51;99518.97;;;12.95;67.35
50702;BME280;36670;50.094;8.496;2022-12-29T08:55:16;99524.59;;;12.85;67.89
50702;BME280;36670;50.094;8.496;2022-12-29T08:57:41;99533.59;;;12.56;68.88
50702;BME280;36670;50.094;8.496;2022-12-29T09:00:08;99530.50;;;12.68;68.89
50702;BME280;36670;50.094;8.496;2022-12-29T09:02:34;99535.78;;;12.64;69.95
50702;BME280;36670;50.094;8.496;2022-12-29T09:04:59;99542.19;;;12.60;70.11
50702;BME280;36670;50.094;8.496;2022-12-29T09:07:25;99546.63;;;12.61;70.41
50702;BME280;36670;50.094;8.496;2022-12-29T09:09:50;99543.00;;;12.60;70.19
50702;BME280;36670;50.094;8.496;2022-12-29T09:12:17;99534.25;;;12.38;71.64
50702;BME280;36670;50.094;8.496;2022-12-29T09:14:42;99534.81;;;12.35;71.86
50702;BME280;36670;50.094;8.496;2022-12-29T09:17:09;99537.00;;;12.43;71.59
50702;BME280;36670;50.094;8.496;2022-12-29T09:19:53;99544.16;;;12.54;71.04
50702;BME280;36670;50.094;8.496;2022-12-29T09:22:19;99541.97;;;12.51;71.74
50702;BME280;36670;50.094;8.496;2022-12-29T09:24:44;99545.25;;;12.53;71.15
50702;BME280;36670;50.094;8.496;2022-12-29T09:27:10;99544.88;;;12.70;71.54
50702;BME280;36670;50.094;8.496;2022-12-29T09:29:35;99556.25;;;12.63;71.36
50702;BME280;36670;50.094;8.496;2022-12-29T09:32:00;99560.72;;;12.59;71.76
50702;BME280;36670;50.094;8.496;2022-12-29T09:34:25;99566.88;;;12.46;71.77
50702;BME280;36670;50.094;8.496;2022-12-29T09:36:51;99584.09;;;12.33;72.80
50702;BME280;36670;50.094;8.496;2022-12-29T09:39:17;99574.13;;;12.32;72.08
50702;BME280;36670;50.094;8.496;2022-12-29T09:44:53;99565.28;;;12.24;74.04
50702;BME280;36670;50.094;8.496;2022-12-29T09:47:22;99568.84;;;12.35;73.92
50702;BME280;36670;50.094;8.496;2022-12-29T09:49:59;99575.19;;;12.51;73.11
50702;BME280;36670;50.094;8.496;2022-12-29T09:52:30;99580.38;;;12.58;73.64
50702;BME280;36670;50.094;8.496;2022-12-29T09:55:11;99571.78;;;12.64;73.28
50702;BME280;36670;50.094;8.496;2022-12-29T09:57:45;99573.44;;;12.66;73.74
50702;BME280;36670;50.094;8.496;2022-12-29T10:00:15;99582.88;;;12.59;73.10
50702;BME280;36670;50.094;8.496;2022-12-29T10:02:52;99573.50;;;12.50;73.80
50702;BME280;36670;50.094;8.496;2022-12-29T10:05:29;99573.81;;;12.49;73.81
50702;BME280;36670;50.094;8.496;2022-12-29T10:10:40;99563.28;;;12.45;74.16
50702;BME280;36670;50.094;8.496;2022-12-29T10:13:33;99560.31;;;12.26;74.00
50702;BME280;36670;50.094;8.496;2022-12-29T10:16:26;99554.78;;;12.26;73.44
50702;BME280;36670;50.094;8.496;2022-12-29T10:19:13;99559.50;;;12.21;73.86
50702;BME280;36670;50.094;8.496;2022-12-29T10:21:59;99561.44;;;12.20;73.16
50702;BME280;36670;50.094;8.496;2022-12-29T10:24:30;99565.63;;;12.07;73.68
50702;BME280;36670;50.094;8.496;2022-12-29T10:26:58;99568.06;;;12.24;73.05
50702;BME280;36670;50.094;8.496;2022-12-29T10:29:28;99563.09;;;12.26;72.85
50702;BME280;36670;50.094;8.496;2022-12-29T10:32:07;99571.09;;;12.33;72.75
50702;BME280;36670;50.094;8.496;2022-12-29T10:34:41;99571.88;;;12.44;72.39
50702;BME280;36670;50.094;8.496;2022-12-29T10:37:23;99581.03;;;12.39;71.98
50702;BME280;36670;50.094;8.496;2022-12-29T10:39:53;99577.44;;;12.34;71.73
50702;BME280;36670;50.094;8.496;2022-12-29T10:42:36;99574.97;;;12.37;71.40
50702;BME280;36670;50.094;8.496;2022-12-29T10:45:05;99583.00;;;12.28;71.10
50702;BME280;36670;50.094;8.496;2022-12-29T10:47:35;99573.81;;;12.49;70.35
50702;BME280;36670;50.094;8.496;2022-12-29T10:50:04;99574.63;;;12.44;69.88
50702;BME280;36670;50.094;8.496;2022-12-29T10:52:30;99574.09;;;12.37;69.76
50702;BME280;36670;50.094;8.496;2022-12-29T10:55:04;99575.50;;;12.39;69.68
50702;BME280;36670;50.094;8.496;2022-12-29T10:57:35;99575.72;;;12.53;69.35
50702;BME280;36670;50.094;8.496;2022-12-29T11:00:10;99568.50;;;12.52;69.17
50702;BME280;36670;50.094;8.496;2022-12-29T11:06:10;99568.88;;;12.90;68.89
50702;BME280;36670;50.094;8.496;2022-12-29T11:08:49;99571.84;;;13.04;67.77
50702;BME280;36670;50.094;8.496;2022-12-29T11:11:26;99566.53;;;13.08;67.25
50702;BME280;36670;50.094;8.496;2022-12-29T11:13:58;99573.63;;;13.24;67.63
50702;BME280;36670;50.094;8.496;2022-12-29T11:16:31;99571.41;;;13.26;66.52
50702;BME280;36670;50.094;8.496;2022-12-29T11:18:57;99577.16;;;13.40;67.10
50702;BME280;36670;50.094;8.496;2022-12-29T11:21:43;99590.66;;;13.52;66.50
50702;BME280;36670;50.094;8.496;2022-12-29T11:24:24;99598.06;;;13.62;65.94
50702;BME280;36670;50.094;8.496;2022-12-29T11:26:52;99589.69;;;13.67;64.29
50702;BME280;36670;50.094;8.496;2022-12-29T11:29:27;99581.38;;;13.67;65.53
50702;BME280;36670;50.094;8.496;2022-12-29T11:31:58;99591.19;;;13.54;65.04
50702;BME280;36670;50.094;8.496;2022-12-29T11:34:41;99589.72;;;13.62;65.40
50702;BME280;36670;50.094;8.496;2022-12-29T11:37:12;99595.28;;;13.62;65.43
50702;BME280;36670;50.094;8.496;2022-12-29T11:39:53;99603.06;;;13.60;65.20
50702;BME280;36670;50.094;8.496;2022-12-29T11:42:24;99607.16;;;13.68;65.32
50702;BME280;36670;50.094;8.496;2022-12-29T11:44:55;99597.72;;;13.69;64.67
50702;BME280;36670;50.094;8.496;2022-12-29T11:47:29;99590.97;;;13.80;65.13
50702;BME280;36670;50.094;8.496;2022-12-29T11:50:01;99589.56;;;13.82;64.87
50702;BME280;36670;50.094;8.496;2022-12-29T11:52:30;99592.63;;;13.81;64.52
50702;BME280;36670;50.094;8.496;2022-12-29T11:54:58;99592.91;;;13.79;63.74
50702;BME280;36670;50.094;8.496;2022-12-29T11:57:26;99582.59;;;13.85;64.35
50702;BME280;36670;50.094;8.496;2022-12-29T11:59:56;99586.75;;;13.88;63.21
50702;BME280;36670;50.094;8.496;2022-12-29T12:02:32;99573.97;;;13.87;63.12
50702;BME280;36670;50.094;8.496;2022-12-29T12:05:03;99571.38;;;13.95;63.34
50702;BME280;36670;50.094;8.496;2022-12-29T12:07:37;99576.84;;;14.06;62.71
50702;BME280;36670;50.094;8.496;2022-12-29T12:10:05;99573.41;;;14.14;62.12
50702;BME280;36670;50.094;8.496;2022-12-29T12:12:37;99568.16;;;14.12;62.64
50702;BME280;36670;50.094;8.496;2022-12-29T12:15:04;99574.97;;;14.25;62.92
50702;BME280;36670;50.094;8.496;2022-12-29T12:17:57;99577.63;;;14.36;61.98
50702;BME280;36670;50.094;8.496;2022-12-29T12:20:47;99582.16;;;14.26;61.72
50702;BME280;36670;50.094;8.496;2022-12-29T12:23:36;99582.09;;;14.07;61.18
50702;BME280;36670;50.094;8.496;2022-12-29T12:26:18;99576.25;;;14.09;61.67
50702;BME280;36670;50.094;8.496;2022-12-29T12:28:49;99588.22;;;14.04;61.44
50702;BME280;36670;50.094;8.496;2022-12-29T12:34:05;99578.03;;;13.94;61.97
50702;BME280;36670;50.094;8.496;2022-12-29T12:36:51;99575.06;;;13.91;60.87
50702;BME280;36670;50.094;8.496;2022-12-29T12:42:03;99574.16;;;13.95;61.61
50702;BME280;36670;50.094;8.496;2022-12-29T12:44:46;99567.84;;;13.90;61.63
50702;BME280;36670;50.094;8.496;2022-12-29T12:47:19;99570.44;;;13.81;61.54
50702;BME280;36670;50.094;8.496;2022-12-29T12:52:33;99576.19;;;13.85;62.70
50702;BME280;36670;50.094;8.496;2022-12-29T12:55:24;99584.63;;;13.74;62.64
50702;BME280;36670;50.094;8.496;2022-12-29T13:03:45;99595.13;;;13.48;64.56
50702;BME280;36670;50.094;8.496;2022-12-29T13:20:47;99579.03;;;14.09;64.36
50702;BME280;36670;50.094;8.496;2022-12-29T13:26:06;99572.31;;;14.39;63.62
50702;BME280;36670;50.094;8.496;2022-12-29T13:29:25;99567.88;;;14.38;63.20
50702;BME280;36670;50.094;8.496;2022-12-29T13:31:33;99570.81;;;14.47;62.71
50702;BME280;36670;50.094;8.496;2022-12-29T13:36:56;99575.31;;;14.43;61.68
50702;BME280;36670;50.094;8.496;2022-12-29T13:40:00;99585.34;;;14.14;61.18
50702;BME280;36670;50.094;8.496;2022-12-29T13:42:27;99579.88;;;14.04;61.92
50702;BME280;36670;50.094;8.496;2022-12-29T13:44:58;99586.00;;;14.06;61.41
50702;BME280;36670;50.094;8.496;2022-12-29T13:47:32;99589.41;;;14.22;61.29
50702;BME280;36670;50.094;8.496;2022-12-29T13:50:01;99584.94;;;14.26;60.56
50702;BME280;36670;50.094;8.496;2022-12-29T13:55:33;99571.78;;;14.13;60.64
50702;BME280;36670;50.094;8.496;2022-12-29T13:58:15;99574.53;;;14.13;60.72
50702;BME280;36670;50.094;8.496;2022-12-29T14:00:54;99581.13;;;13.93;61.04
50702;BME280;36670;50.094;8.496;2022-12-29T14:03:50;99584.38;;;14.00;61.17
50702;BME280;36670;50.094;8.496;2022-12-29T14:06:21;99586.16;;;13.91;60.60
50702;BME280;36670;50.094;8.496;2022-12-29T14:08:48;99577.56;;;13.87;60.87
50702;BME280;36670;50.094;8.496;2022-12-29T14:11:16;99584.78;;;13.88;61.26
50702;BME280;36670;50.094;8.496;2022-12-29T14:13:45;99589.28;;;13.79;61.28
50702;BME280;36670;50.094;8.496;2022-12-29T14:16:29;99591.97;;;13.60;61.62
50702;BME280;36670;50.094;8.496;2022-12-29T14:19:03;99595.69;;;13.45;61.38
50702;BME280;36670;50.094;8.496;2022-12-29T14:21:30;99594.22;;;13.53;61.38